ITY1274 LIRN-LIRF
Flight info
| Callsign | ITY1274 |
|---|---|
| Flight time | 0h 28m |
| Altitude | 18000 |
| Route | SIPRO1N/24 SIPRO Z803 LAT |
| Aircraft | A20N/M-SDE2E3FGHIRWXY/LB1 |
Departure
| Time | 2026-05-04 15:56 |
|---|---|
| Airport | Naples International Airport (LIRN) |
Arrival
| Time | 2026-05-04 16:24 |
|---|---|
| Airport | Rome–Fiumicino Leonardo da Vinci International Airport (LIRF) |
| Time | Latitude | Longitude | Altitude | Speed | Heading |
|---|---|---|---|---|---|
| 2026-05-04 15:37 | 40.88009 | 14.28382 | 290 ft | 0 kts | 334° |
| 2026-05-04 15:51 | 40.88027 | 14.28370 | 292 ft | 11 kts | 334° |
| 2026-05-04 15:51 | 40.88054 | 14.28399 | 294 ft | 8 kts | 99° |
| 2026-05-04 15:51 | 40.88043 | 14.28542 | 286 ft | 18 kts | 98° |
| 2026-05-04 15:51 | 40.88088 | 14.28673 | 283 ft | 17 kts | 54° |
| 2026-05-04 15:52 | 40.88150 | 14.28786 | 279 ft | 21 kts | 53° |
| 2026-05-04 15:52 | 40.88206 | 14.28888 | 276 ft | 24 kts | 53° |
| 2026-05-04 15:52 | 40.88287 | 14.29027 | 272 ft | 28 kts | 52° |
| 2026-05-04 15:52 | 40.88414 | 14.29244 | 265 ft | 32 kts | 52° |
| 2026-05-04 15:53 | 40.88546 | 14.29476 | 257 ft | 32 kts | 53° |
| 2026-05-04 15:53 | 40.88690 | 14.29723 | 250 ft | 36 kts | 52° |
| 2026-05-04 15:53 | 40.88830 | 14.29966 | 242 ft | 29 kts | 52° |
| 2026-05-04 15:53 | 40.88932 | 14.30143 | 237 ft | 14 kts | 52° |
| 2026-05-04 15:54 | 40.88984 | 14.30184 | 236 ft | 9 kts | 346° |
| 2026-05-04 15:54 | 40.88998 | 14.30172 | 237 ft | 0 kts | 327° |
| 2026-05-04 15:54 | 40.89001 | 14.30170 | 237 ft | 2 kts | 326° |
| 2026-05-04 15:54 | 40.89036 | 14.30140 | 238 ft | 9 kts | 328° |
| 2026-05-04 15:55 | 40.89086 | 14.30083 | 239 ft | 5 kts | 275° |
| 2026-05-04 15:55 | 40.89068 | 14.30055 | 237 ft | 9 kts | 231° |
| 2026-05-04 15:55 | 40.88921 | 14.29748 | 247 ft | 75 kts | 237° |
| 2026-05-04 15:55 | 40.88535 | 14.28935 | 272 ft | 131 kts | 238° |
| 2026-05-04 15:56 | 40.87995 | 14.27787 | 584 ft | 151 kts | 237° |
| 2026-05-04 15:56 | 40.87464 | 14.26564 | 1231 ft | 154 kts | 246° |
| 2026-05-04 15:56 | 40.87157 | 14.25209 | 1878 ft | 158 kts | 265° |
| 2026-05-04 15:56 | 40.87357 | 14.23664 | 2169 ft | 184 kts | 291° |
| 2026-05-04 15:57 | 40.87991 | 14.22086 | 2598 ft | 205 kts | 303° |
| 2026-05-04 15:57 | 40.88869 | 14.20468 | 3099 ft | 226 kts | 306° |
| 2026-05-04 15:57 | 40.89785 | 14.18753 | 4024 ft | 227 kts | 303° |
| 2026-05-04 15:57 | 40.90678 | 14.17030 | 5065 ft | 229 kts | 303° |
| 2026-05-04 15:58 | 40.91584 | 14.15278 | 5998 ft | 231 kts | 303° |
| 2026-05-04 15:58 | 40.92510 | 14.13533 | 6961 ft | 233 kts | 309° |
| 2026-05-04 15:58 | 40.93816 | 14.12290 | 7879 ft | 236 kts | 340° |
| 2026-05-04 15:58 | 40.95453 | 14.11917 | 8697 ft | 246 kts | 353° |
| 2026-05-04 15:59 | 40.97232 | 14.11684 | 9199 ft | 268 kts | 353° |
| 2026-05-04 15:59 | 40.99165 | 14.11435 | 9717 ft | 288 kts | 353° |
| 2026-05-04 15:59 | 41.01180 | 14.11067 | 10495 ft | 296 kts | 342° |
| 2026-05-04 15:59 | 41.03053 | 14.09872 | 10880 ft | 314 kts | 324° |
| 2026-05-04 16:00 | 41.04886 | 14.08110 | 11225 ft | 335 kts | 322° |
| 2026-05-04 16:00 | 41.06761 | 14.06215 | 11959 ft | 341 kts | 321° |
| 2026-05-04 16:00 | 41.08653 | 14.04290 | 12847 ft | 345 kts | 321° |
| 2026-05-04 16:00 | 41.10571 | 14.02347 | 13708 ft | 348 kts | 321° |
| 2026-05-04 16:01 | 41.12515 | 14.00388 | 14510 ft | 352 kts | 321° |
| 2026-05-04 16:01 | 41.14471 | 13.98426 | 15304 ft | 354 kts | 321° |
| 2026-05-04 16:01 | 41.16446 | 13.96446 | 16102 ft | 356 kts | 321° |
| 2026-05-04 16:01 | 41.18432 | 13.94455 | 16875 ft | 360 kts | 321° |
| 2026-05-04 16:02 | 41.20441 | 13.92439 | 17610 ft | 363 kts | 321° |
| 2026-05-04 16:02 | 41.22465 | 13.90406 | 18025 ft | 366 kts | 321° |
| 2026-05-04 16:02 | 41.26530 | 13.86320 | 18139 ft | 366 kts | 321° |
| 2026-05-04 16:03 | 41.28560 | 13.84276 | 18139 ft | 366 kts | 321° |
| 2026-05-04 16:03 | 41.30412 | 13.81991 | 18135 ft | 363 kts | 306° |
| 2026-05-04 16:03 | 41.31712 | 13.79173 | 18134 ft | 362 kts | 298° |
| 2026-05-04 16:03 | 41.32923 | 13.76242 | 18134 ft | 361 kts | 298° |
| 2026-05-04 16:04 | 41.34127 | 13.73309 | 18130 ft | 361 kts | 298° |
| 2026-05-04 16:04 | 41.36546 | 13.67418 | 18130 ft | 361 kts | 298° |
| 2026-05-04 16:04 | 41.37751 | 13.64488 | 18126 ft | 361 kts | 298° |
| 2026-05-04 16:05 | 41.38956 | 13.61556 | 18129 ft | 361 kts | 298° |
| 2026-05-04 16:05 | 41.40160 | 13.58624 | 18128 ft | 360 kts | 298° |
| 2026-05-04 16:05 | 41.42573 | 13.52745 | 18132 ft | 361 kts | 297° |
| 2026-05-04 16:06 | 41.43774 | 13.49812 | 18135 ft | 360 kts | 297° |
| 2026-05-04 16:06 | 41.46969 | 13.42000 | 18141 ft | 361 kts | 297° |
| 2026-05-04 16:07 | 41.48559 | 13.38102 | 18144 ft | 360 kts | 297° |
| 2026-05-04 16:07 | 41.52153 | 13.29280 | 18151 ft | 360 kts | 297° |
| 2026-05-04 16:08 | 41.53346 | 13.26345 | 18155 ft | 360 kts | 297° |
| 2026-05-04 16:08 | 41.56904 | 13.17571 | 17514 ft | 357 kts | 297° |
| 2026-05-04 16:09 | 41.59257 | 13.11757 | 17000 ft | 354 kts | 297° |
| 2026-05-04 16:09 | 41.61587 | 13.05987 | 16493 ft | 352 kts | 297° |
| 2026-05-04 16:10 | 41.63904 | 13.00237 | 15994 ft | 350 kts | 297° |
| 2026-05-04 16:11 | 41.67359 | 12.91646 | 14813 ft | 352 kts | 297° |
| 2026-05-04 16:11 | 41.68511 | 12.88773 | 14316 ft | 350 kts | 297° |
| 2026-05-04 16:12 | 41.71907 | 12.80297 | 12791 ft | 340 kts | 297° |
| 2026-05-04 16:12 | 41.73020 | 12.77514 | 12221 ft | 339 kts | 297° |
| 2026-05-04 16:13 | 41.75019 | 12.72507 | 11239 ft | 337 kts | 296° |
| 2026-05-04 16:13 | 41.77206 | 12.67013 | 10314 ft | 333 kts | 296° |
| 2026-05-04 16:14 | 41.79303 | 12.61752 | 10065 ft | 307 kts | 296° |
| 2026-05-04 16:14 | 41.81703 | 12.57281 | 9559 ft | 294 kts | 314° |
| 2026-05-04 16:15 | 41.86063 | 12.51560 | 8342 ft | 290 kts | 314° |
| 2026-05-04 16:16 | 41.88920 | 12.47787 | 7233 ft | 287 kts | 314° |
| 2026-05-04 16:16 | 41.93022 | 12.42335 | 5964 ft | 272 kts | 314° |
| 2026-05-04 16:17 | 41.95628 | 12.38850 | 5266 ft | 259 kts | 314° |
| 2026-05-04 16:18 | 41.99340 | 12.33726 | 3966 ft | 252 kts | 301° |
| 2026-05-04 16:18 | 41.99908 | 12.31566 | 3674 ft | 241 kts | 269° |
| 2026-05-04 16:19 | 41.99018 | 12.25621 | 3236 ft | 195 kts | 254° |
| 2026-05-04 16:19 | 41.98413 | 12.22233 | 2652 ft | 177 kts | 245° |
| 2026-05-04 16:20 | 41.95703 | 12.21197 | 2514 ft | 161 kts | 158° |
| 2026-05-04 16:20 | 41.93689 | 12.22302 | 2028 ft | 156 kts | 163° |
| 2026-05-04 16:21 | 41.90600 | 12.23630 | 1401 ft | 155 kts | 165° |
| 2026-05-04 16:22 | 41.88706 | 12.24426 | 893 ft | 133 kts | 166° |
| 2026-05-04 16:22 | 41.85945 | 12.25582 | 348 ft | 138 kts | 164° |
| 2026-05-04 16:23 | 41.83334 | 12.26679 | 12 ft | 104 kts | 163° |
| 2026-05-04 16:24 | 41.81878 | 12.27083 | 12 ft | 25 kts | 194° |
| 2026-05-04 16:25 | 41.81588 | 12.27087 | 11 ft | 18 kts | 162° |
| 2026-05-04 16:26 | 41.81056 | 12.27307 | 12 ft | 21 kts | 162° |
| 2026-05-04 16:26 | 41.80682 | 12.27276 | 12 ft | 16 kts | 227° |
| 2026-05-04 16:27 | 41.80579 | 12.26989 | 13 ft | 19 kts | 246° |
| 2026-05-04 16:28 | 41.80444 | 12.26454 | 17 ft | 21 kts | 249° |
| 2026-05-04 16:28 | 41.80203 | 12.26027 | 15 ft | 22 kts | 205° |
| 2026-05-04 16:29 | 41.79721 | 12.25719 | 15 ft | 11 kts | 204° |
| 2026-05-04 16:30 | 41.79685 | 12.25630 | 15 ft | 1 kts | 295° |
| 2026-05-04 16:31 | 41.79690 | 12.25614 | 15 ft | 0 kts | 295° |
| 2026-05-04 16:31 | 41.79689 | 12.25618 | 15 ft | 0 kts | 295° |
| 2026-05-04 16:32 | 41.79690 | 12.25615 | 15 ft | 0 kts | 295° |